sensor_id;sensor_type;location;lat;lon;timestamp;temperature;humidity
18884;DHT22;9574;47.282;9.640;2023-11-18T00:00:14;4.50;99.90
18884;DHT22;9574;47.282;9.640;2023-11-18T00:02:42;4.40;99.90
18884;DHT22;9574;47.282;9.640;2023-11-18T00:05:10;4.30;99.90
18884;DHT22;9574;47.282;9.640;2023-11-18T00:07:38;4.30;99.90
18884;DHT22;9574;47.282;9.640;2023-11-18T00:10:06;4.20;99.90
18884;DHT22;9574;47.282;9.640;2023-11-18T00:12:34;4.20;99.90
18884;DHT22;9574;47.282;9.640;2023-11-18T00:15:01;4.10;99.90
18884;DHT22;9574;47.282;9.640;2023-11-18T00:17:30;4.30;99.90
18884;DHT22;9574;47.282;9.640;2023-11-18T00:19:57;4.50;99.90
18884;DHT22;9574;47.282;9.640;2023-11-18T00:22:24;4.50;99.90
18884;DHT22;9574;47.282;9.640;2023-11-18T00:24:53;4.60;99.90
18884;DHT22;9574;47.282;9.640;2023-11-18T00:27:20;4.70;99.90
18884;DHT22;9574;47.282;9.640;2023-11-18T00:29:48;4.80;99.90
18884;DHT22;9574;47.282;9.640;2023-11-18T00:32:15;4.80;99.90
18884;DHT22;9574;47.282;9.640;2023-11-18T00:34:42;4.80;99.90
18884;DHT22;9574;47.282;9.640;2023-11-18T00:37:10;4.70;99.90
18884;DHT22;9574;47.282;9.640;2023-11-18T00:39:37;4.80;99.90
18884;DHT22;9574;47.282;9.640;2023-11-18T00:42:05;4.90;99.90
18884;DHT22;9574;47.282;9.640;2023-11-18T00:44:32;4.80;99.90
18884;DHT22;9574;47.282;9.640;2023-11-18T00:47:00;4.60;99.90
18884;DHT22;9574;47.282;9.640;2023-11-18T00:49:28;4.50;99.90
18884;DHT22;9574;47.282;9.640;2023-11-18T00:51:55;4.50;99.90
18884;DHT22;9574;47.282;9.640;2023-11-18T00:54:22;4.60;99.90
18884;DHT22;9574;47.282;9.640;2023-11-18T00:56:50;4.60;99.90
18884;DHT22;9574;47.282;9.640;2023-11-18T00:59:18;4.70;99.90
18884;DHT22;9574;47.282;9.640;2023-11-18T01:01:45;4.60;99.90
18884;DHT22;9574;47.282;9.640;2023-11-18T01:04:12;4.50;99.90
18884;DHT22;9574;47.282;9.640;2023-11-18T01:06:39;4.40;99.90
18884;DHT22;9574;47.282;9.640;2023-11-18T01:09:06;4.30;99.90
18884;DHT22;9574;47.282;9.640;2023-11-18T01:11:35;4.30;99.90
18884;DHT22;9574;47.282;9.640;2023-11-18T01:14:02;4.30;99.90
18884;DHT22;9574;47.282;9.640;2023-11-18T01:16:31;4.50;99.90
18884;DHT22;9574;47.282;9.640;2023-11-18T01:18:58;4.70;99.90
18884;DHT22;9574;47.282;9.640;2023-11-18T01:21:25;4.80;99.90
18884;DHT22;9574;47.282;9.640;2023-11-18T01:23:53;4.70;99.90
18884;DHT22;9574;47.282;9.640;2023-11-18T01:26:20;4.50;99.90
18884;DHT22;9574;47.282;9.640;2023-11-18T01:28:48;4.60;99.90
18884;DHT22;9574;47.282;9.640;2023-11-18T01:31:15;4.60;99.90
18884;DHT22;9574;47.282;9.640;2023-11-18T01:33:44;4.40;99.90
18884;DHT22;9574;47.282;9.640;2023-11-18T01:36:12;4.20;99.90
18884;DHT22;9574;47.282;9.640;2023-11-18T01:38:39;4.00;99.90
18884;DHT22;9574;47.282;9.640;2023-11-18T01:41:06;3.90;99.90
18884;DHT22;9574;47.282;9.640;2023-11-18T01:43:35;3.80;99.90
18884;DHT22;9574;47.282;9.640;2023-11-18T01:46:05;3.80;99.90
18884;DHT22;9574;47.282;9.640;2023-11-18T01:48:33;3.80;99.90
18884;DHT22;9574;47.282;9.640;2023-11-18T01:51:01;3.80;99.90
18884;DHT22;9574;47.282;9.640;2023-11-18T01:53:29;3.80;99.90
18884;DHT22;9574;47.282;9.640;2023-11-18T01:55:58;4.00;99.90
18884;DHT22;9574;47.282;9.640;2023-11-18T01:58:25;4.20;99.90
18884;DHT22;9574;47.282;9.640;2023-11-18T02:00:53;4.20;99.90
18884;DHT22;9574;47.282;9.640;2023-11-18T02:03:20;4.10;99.90
18884;DHT22;9574;47.282;9.640;2023-11-18T02:05:47;4.00;99.90
18884;DHT22;9574;47.282;9.640;2023-11-18T02:08:15;4.00;99.90
18884;DHT22;9574;47.282;9.640;2023-11-18T02:10:48;4.10;99.90
18884;DHT22;9574;47.282;9.640;2023-11-18T02:13:22;4.00;99.90
18884;DHT22;9574;47.282;9.640;2023-11-18T02:15:53;3.90;99.90
18884;DHT22;9574;47.282;9.640;2023-11-18T02:18:24;3.90;99.90
18884;DHT22;9574;47.282;9.640;2023-11-18T02:20:53;3.90;99.90
18884;DHT22;9574;47.282;9.640;2023-11-18T02:23:24;4.00;99.90
18884;DHT22;9574;47.282;9.640;2023-11-18T02:25:53;4.10;99.90
18884;DHT22;9574;47.282;9.640;2023-11-18T02:28:21;4.20;99.90
18884;DHT22;9574;47.282;9.640;2023-11-18T02:30:50;4.00;99.90
18884;DHT22;9574;47.282;9.640;2023-11-18T02:33:27;3.90;99.90
18884;DHT22;9574;47.282;9.640;2023-11-18T02:36:02;3.90;99.90
18884;DHT22;9574;47.282;9.640;2023-11-18T02:38:35;4.10;99.90
18884;DHT22;9574;47.282;9.640;2023-11-18T02:41:10;4.30;99.90
18884;DHT22;9574;47.282;9.640;2023-11-18T02:43:39;4.40;99.90
18884;DHT22;9574;47.282;9.640;2023-11-18T02:46:07;4.20;99.90
18884;DHT22;9574;47.282;9.640;2023-11-18T02:48:35;4.10;99.90
18884;DHT22;9574;47.282;9.640;2023-11-18T02:51:03;4.30;99.90
18884;DHT22;9574;47.282;9.640;2023-11-18T02:53:30;4.40;99.90
18884;DHT22;9574;47.282;9.640;2023-11-18T02:55:58;4.30;99.90
18884;DHT22;9574;47.282;9.640;2023-11-18T02:58:29;4.00;99.90
18884;DHT22;9574;47.282;9.640;2023-11-18T03:00:56;4.00;99.90
18884;DHT22;9574;47.282;9.640;2023-11-18T03:03:25;4.20;99.90
18884;DHT22;9574;47.282;9.640;2023-11-18T03:05:53;3.90;99.90
18884;DHT22;9574;47.282;9.640;2023-11-18T03:08:20;3.70;99.90
18884;DHT22;9574;47.282;9.640;2023-11-18T03:10:47;3.50;99.90
18884;DHT22;9574;47.282;9.640;2023-11-18T03:13:16;3.60;99.90
18884;DHT22;9574;47.282;9.640;2023-11-18T03:15:44;3.60;99.90
18884;DHT22;9574;47.282;9.640;2023-11-18T03:18:14;3.50;99.90
18884;DHT22;9574;47.282;9.640;2023-11-18T03:20:41;3.80;99.90
18884;DHT22;9574;47.282;9.640;2023-11-18T03:23:07;3.90;99.90
18884;DHT22;9574;47.282;9.640;2023-11-18T03:25:35;3.80;99.90
18884;DHT22;9574;47.282;9.640;2023-11-18T03:28:03;3.50;99.90
18884;DHT22;9574;47.282;9.640;2023-11-18T03:30:32;3.40;99.90
18884;DHT22;9574;47.282;9.640;2023-11-18T03:33:00;3.20;99.90
18884;DHT22;9574;47.282;9.640;2023-11-18T03:35:27;3.10;99.90
18884;DHT22;9574;47.282;9.640;2023-11-18T03:37:55;3.00;99.90
18884;DHT22;9574;47.282;9.640;2023-11-18T03:40:22;3.00;99.90
18884;DHT22;9574;47.282;9.640;2023-11-18T03:42:49;2.90;99.90
18884;DHT22;9574;47.282;9.640;2023-11-18T03:45:15;3.20;99.90
18884;DHT22;9574;47.282;9.640;2023-11-18T03:47:43;3.50;99.90
18884;DHT22;9574;47.282;9.640;2023-11-18T03:50:12;3.50;99.90
18884;DHT22;9574;47.282;9.640;2023-11-18T03:52:39;3.70;99.90
18884;DHT22;9574;47.282;9.640;2023-11-18T03:55:07;3.80;99.90
18884;DHT22;9574;47.282;9.640;2023-11-18T03:57:34;3.60;99.90
18884;DHT22;9574;47.282;9.640;2023-11-18T04:00:02;3.50;99.90
18884;DHT22;9574;47.282;9.640;2023-11-18T04:02:29;3.30;99.90
18884;DHT22;9574;47.282;9.640;2023-11-18T04:04:56;3.30;99.90
18884;DHT22;9574;47.282;9.640;2023-11-18T04:07:24;3.40;99.90
18884;DHT22;9574;47.282;9.640;2023-11-18T04:09:51;3.50;99.90
18884;DHT22;9574;47.282;9.640;2023-11-18T04:12:19;3.50;99.90
18884;DHT22;9574;47.282;9.640;2023-11-18T04:14:46;3.50;99.90
18884;DHT22;9574;47.282;9.640;2023-11-18T04:17:13;3.30;99.90
18884;DHT22;9574;47.282;9.640;2023-11-18T04:19:40;3.00;99.90
18884;DHT22;9574;47.282;9.640;2023-11-18T04:22:07;2.80;99.90
18884;DHT22;9574;47.282;9.640;2023-11-18T04:24:36;2.70;99.90
18884;DHT22;9574;47.282;9.640;2023-11-18T04:27:03;2.60;99.90
18884;DHT22;9574;47.282;9.640;2023-11-18T04:29:30;2.50;99.90
18884;DHT22;9574;47.282;9.640;2023-11-18T04:31:57;2.50;99.90
18884;DHT22;9574;47.282;9.640;2023-11-18T04:34:25;2.50;99.90
18884;DHT22;9574;47.282;9.640;2023-11-18T04:36:52;2.40;99.90
18884;DHT22;9574;47.282;9.640;2023-11-18T04:39:19;2.40;99.90
18884;DHT22;9574;47.282;9.640;2023-11-18T04:41:49;2.30;99.90
18884;DHT22;9574;47.282;9.640;2023-11-18T04:44:16;2.20;99.90
18884;DHT22;9574;47.282;9.640;2023-11-18T04:46:43;2.20;99.90
18884;DHT22;9574;47.282;9.640;2023-11-18T04:49:10;2.20;99.90
18884;DHT22;9574;47.282;9.640;2023-11-18T04:51:37;2.10;99.90
18884;DHT22;9574;47.282;9.640;2023-11-18T04:54:04;2.10;99.90
18884;DHT22;9574;47.282;9.640;2023-11-18T04:56:33;2.00;99.90
18884;DHT22;9574;47.282;9.640;2023-11-18T04:59:02;2.00;99.90
18884;DHT22;9574;47.282;9.640;2023-11-18T05:01:30;2.00;99.90
18884;DHT22;9574;47.282;9.640;2023-11-18T05:03:57;2.00;99.90
18884;DHT22;9574;47.282;9.640;2023-11-18T05:06:25;2.00;99.90
18884;DHT22;9574;47.282;9.640;2023-11-18T05:08:52;2.00;99.90
18884;DHT22;9574;47.282;9.640;2023-11-18T05:11:19;2.00;99.90
18884;DHT22;9574;47.282;9.640;2023-11-18T05:13:46;2.10;99.90
18884;DHT22;9574;47.282;9.640;2023-11-18T05:16:14;2.30;99.90
18884;DHT22;9574;47.282;9.640;2023-11-18T05:18:41;2.60;99.90
18884;DHT22;9574;47.282;9.640;2023-11-18T05:21:08;2.70;99.90
18884;DHT22;9574;47.282;9.640;2023-11-18T05:23:36;2.80;99.90
18884;DHT22;9574;47.282;9.640;2023-11-18T05:26:04;2.90;99.90
18884;DHT22;9574;47.282;9.640;2023-11-18T05:28:31;2.70;99.90
18884;DHT22;9574;47.282;9.640;2023-11-18T05:30:58;2.50;99.90
18884;DHT22;9574;47.282;9.640;2023-11-18T05:33:28;2.30;99.90
18884;DHT22;9574;47.282;9.640;2023-11-18T05:35:55;2.30;99.90
18884;DHT22;9574;47.282;9.640;2023-11-18T05:38:23;2.30;99.90
18884;DHT22;9574;47.282;9.640;2023-11-18T05:40:53;2.20;99.90
18884;DHT22;9574;47.282;9.640;2023-11-18T05:43:23;2.20;99.90
18884;DHT22;9574;47.282;9.640;2023-11-18T05:45:51;2.30;99.90
18884;DHT22;9574;47.282;9.640;2023-11-18T05:48:53;2.30;99.90
18884;DHT22;9574;47.282;9.640;2023-11-18T05:51:22;2.30;99.90
18884;DHT22;9574;47.282;9.640;2023-11-18T05:53:49;2.30;99.90
18884;DHT22;9574;47.282;9.640;2023-11-18T05:56:17;2.40;99.90
18884;DHT22;9574;47.282;9.640;2023-11-18T05:58:45;2.40;99.90
18884;DHT22;9574;47.282;9.640;2023-11-18T06:01:13;2.40;99.90
18884;DHT22;9574;47.282;9.640;2023-11-18T06:03:41;2.30;99.90
18884;DHT22;9574;47.282;9.640;2023-11-18T06:06:10;2.40;99.90
18884;DHT22;9574;47.282;9.640;2023-11-18T06:08:39;2.40;99.90
18884;DHT22;9574;47.282;9.640;2023-11-18T06:11:06;2.30;99.90
18884;DHT22;9574;47.282;9.640;2023-11-18T06:13:40;2.30;99.90
18884;DHT22;9574;47.282;9.640;2023-11-18T06:16:09;2.50;99.90
18884;DHT22;9574;47.282;9.640;2023-11-18T06:18:40;2.60;99.90
18884;DHT22;9574;47.282;9.640;2023-11-18T06:21:13;2.60;99.90
18884;DHT22;9574;47.282;9.640;2023-11-18T06:23:40;2.60;99.90
18884;DHT22;9574;47.282;9.640;2023-11-18T06:26:07;2.60;99.90
18884;DHT22;9574;47.282;9.640;2023-11-18T06:28:36;2.90;99.90
18884;DHT22;9574;47.282;9.640;2023-11-18T06:31:04;3.00;99.90
18884;DHT22;9574;47.282;9.640;2023-11-18T06:33:36;2.90;99.90
18884;DHT22;9574;47.282;9.640;2023-11-18T06:36:05;3.00;99.90
18884;DHT22;9574;47.282;9.640;2023-11-18T06:38:34;3.10;99.90
18884;DHT22;9574;47.282;9.640;2023-11-18T06:41:01;3.00;99.90
18884;DHT22;9574;47.282;9.640;2023-11-18T06:43:30;2.90;99.90
18884;DHT22;9574;47.282;9.640;2023-11-18T06:46:11;2.80;99.90
18884;DHT22;9574;47.282;9.640;2023-11-18T06:48:40;2.60;99.90
18884;DHT22;9574;47.282;9.640;2023-11-18T06:51:07;2.50;99.90
18884;DHT22;9574;47.282;9.640;2023-11-18T06:53:36;2.50;99.90
18884;DHT22;9574;47.282;9.640;2023-11-18T06:56:03;2.50;99.90
18884;DHT22;9574;47.282;9.640;2023-11-18T06:58:30;2.50;99.90
18884;DHT22;9574;47.282;9.640;2023-11-18T07:00:57;2.50;99.90
18884;DHT22;9574;47.282;9.640;2023-11-18T07:03:24;2.50;99.90
18884;DHT22;9574;47.282;9.640;2023-11-18T07:05:51;2.50;99.90
18884;DHT22;9574;47.282;9.640;2023-11-18T07:08:18;2.70;99.90
18884;DHT22;9574;47.282;9.640;2023-11-18T07:10:47;2.70;99.90
18884;DHT22;9574;47.282;9.640;2023-11-18T07:13:14;2.50;99.90
18884;DHT22;9574;47.282;9.640;2023-11-18T07:15:42;2.60;99.90
18884;DHT22;9574;47.282;9.640;2023-11-18T07:18:09;2.60;99.90
18884;DHT22;9574;47.282;9.640;2023-11-18T07:20:37;2.60;99.90
18884;DHT22;9574;47.282;9.640;2023-11-18T07:23:04;2.50;99.90
18884;DHT22;9574;47.282;9.640;2023-11-18T07:25:34;2.60;99.90
18884;DHT22;9574;47.282;9.640;2023-11-18T07:28:02;2.60;99.90
18884;DHT22;9574;47.282;9.640;2023-11-18T07:30:30;2.70;99.90
18884;DHT22;9574;47.282;9.640;2023-11-18T07:32:57;2.70;99.90
18884;DHT22;9574;47.282;9.640;2023-11-18T07:35:27;2.70;99.90
18884;DHT22;9574;47.282;9.640;2023-11-18T07:37:55;2.70;99.90
18884;DHT22;9574;47.282;9.640;2023-11-18T07:40:22;2.80;99.90
18884;DHT22;9574;47.282;9.640;2023-11-18T07:42:53;2.80;99.90
18884;DHT22;9574;47.282;9.640;2023-11-18T07:45:22;2.80;99.90
18884;DHT22;9574;47.282;9.640;2023-11-18T07:47:50;3.10;99.90
18884;DHT22;9574;47.282;9.640;2023-11-18T07:50:17;3.40;99.90
18884;DHT22;9574;47.282;9.640;2023-11-18T07:52:45;3.50;99.90
18884;DHT22;9574;47.282;9.640;2023-11-18T07:55:13;3.60;99.90
18884;DHT22;9574;47.282;9.640;2023-11-18T07:57:40;3.70;99.90
18884;DHT22;9574;47.282;9.640;2023-11-18T08:00:08;3.80;99.90
18884;DHT22;9574;47.282;9.640;2023-11-18T08:02:38;3.90;99.90
18884;DHT22;9574;47.282;9.640;2023-11-18T08:05:05;3.90;99.90
18884;DHT22;9574;47.282;9.640;2023-11-18T08:07:34;4.10;99.90
18884;DHT22;9574;47.282;9.640;2023-11-18T08:10:02;4.10;99.90
18884;DHT22;9574;47.282;9.640;2023-11-18T08:12:30;4.20;99.90
18884;DHT22;9574;47.282;9.640;2023-11-18T08:14:57;4.30;99.90
18884;DHT22;9574;47.282;9.640;2023-11-18T08:17:24;4.40;99.90
18884;DHT22;9574;47.282;9.640;2023-11-18T08:19:53;4.40;99.90
18884;DHT22;9574;47.282;9.640;2023-11-18T08:22:21;4.50;99.90
18884;DHT22;9574;47.282;9.640;2023-11-18T08:24:48;4.50;99.90
18884;DHT22;9574;47.282;9.640;2023-11-18T08:27:16;4.50;99.90
18884;DHT22;9574;47.282;9.640;2023-11-18T08:29:43;4.70;99.90
18884;DHT22;9574;47.282;9.640;2023-11-18T08:32:12;4.70;99.90
18884;DHT22;9574;47.282;9.640;2023-11-18T08:34:39;4.80;99.90
18884;DHT22;9574;47.282;9.640;2023-11-18T08:37:07;5.00;99.90
18884;DHT22;9574;47.282;9.640;2023-11-18T08:39:35;5.20;99.90
18884;DHT22;9574;47.282;9.640;2023-11-18T08:42:02;5.30;99.90
18884;DHT22;9574;47.282;9.640;2023-11-18T08:44:29;5.40;99.90
18884;DHT22;9574;47.282;9.640;2023-11-18T08:46:58;5.50;99.90
18884;DHT22;9574;47.282;9.640;2023-11-18T08:49:25;5.60;99.90
18884;DHT22;9574;47.282;9.640;2023-11-18T08:51:55;5.60;99.90
18884;DHT22;9574;47.282;9.640;2023-11-18T08:54:25;5.90;99.90
18884;DHT22;9574;47.282;9.640;2023-11-18T08:57:03;6.00;99.90
18884;DHT22;9574;47.282;9.640;2023-11-18T08:59:41;5.80;99.90
18884;DHT22;9574;47.282;9.640;2023-11-18T09:02:07;5.80;99.90
18884;DHT22;9574;47.282;9.640;2023-11-18T09:04:39;5.90;99.90
18884;DHT22;9574;47.282;9.640;2023-11-18T09:07:09;6.00;99.90
18884;DHT22;9574;47.282;9.640;2023-11-18T09:09:38;6.10;99.90
18884;DHT22;9574;47.282;9.640;2023-11-18T09:12:06;6.10;99.90
18884;DHT22;9574;47.282;9.640;2023-11-18T09:14:34;6.20;99.90
18884;DHT22;9574;47.282;9.640;2023-11-18T09:17:01;6.30;99.90
18884;DHT22;9574;47.282;9.640;2023-11-18T09:19:28;6.20;99.90
18884;DHT22;9574;47.282;9.640;2023-11-18T09:21:55;6.20;99.90
18884;DHT22;9574;47.282;9.640;2023-11-18T09:24:22;6.10;99.90
18884;DHT22;9574;47.282;9.640;2023-11-18T09:26:52;6.10;99.90
18884;DHT22;9574;47.282;9.640;2023-11-18T09:29:20;6.00;99.90
18884;DHT22;9574;47.282;9.640;2023-11-18T09:31:49;6.00;99.90
18884;DHT22;9574;47.282;9.640;2023-11-18T09:34:18;5.80;99.90
18884;DHT22;9574;47.282;9.640;2023-11-18T09:36:53;5.70;99.90
18884;DHT22;9574;47.282;9.640;2023-11-18T09:39:20;5.70;99.90
18884;DHT22;9574;47.282;9.640;2023-11-18T09:42:05;5.80;99.90
18884;DHT22;9574;47.282;9.640;2023-11-18T09:44:36;5.90;99.90
18884;DHT22;9574;47.282;9.640;2023-11-18T09:47:07;6.00;99.90
18884;DHT22;9574;47.282;9.640;2023-11-18T09:49:40;6.30;99.90
18884;DHT22;9574;47.282;9.640;2023-11-18T09:52:15;6.50;99.90
18884;DHT22;9574;47.282;9.640;2023-11-18T09:54:50;6.60;99.90
18884;DHT22;9574;47.282;9.640;2023-11-18T09:57:27;6.50;99.90
18884;DHT22;9574;47.282;9.640;2023-11-18T10:00:01;6.60;99.90
18884;DHT22;9574;47.282;9.640;2023-11-18T10:02:39;6.70;99.90
18884;DHT22;9574;47.282;9.640;2023-11-18T10:05:07;6.70;99.90
18884;DHT22;9574;47.282;9.640;2023-11-18T10:07:39;6.70;99.90
18884;DHT22;9574;47.282;9.640;2023-11-18T10:10:08;6.60;99.90
18884;DHT22;9574;47.282;9.640;2023-11-18T10:12:41;6.60;99.90
18884;DHT22;9574;47.282;9.640;2023-11-18T10:15:12;6.40;99.90
18884;DHT22;9574;47.282;9.640;2023-11-18T10:17:42;6.50;99.90
18884;DHT22;9574;47.282;9.640;2023-11-18T10:20:21;6.50;99.90
18884;DHT22;9574;47.282;9.640;2023-11-18T10:23:05;6.70;99.90
18884;DHT22;9574;47.282;9.640;2023-11-18T10:25:35;6.80;99.90
18884;DHT22;9574;47.282;9.640;2023-11-18T10:28:07;6.80;99.90
18884;DHT22;9574;47.282;9.640;2023-11-18T10:30:43;6.90;99.90
18884;DHT22;9574;47.282;9.640;2023-11-18T10:33:14;6.80;99.90
18884;DHT22;9574;47.282;9.640;2023-11-18T10:35:49;6.80;99.90
18884;DHT22;9574;47.282;9.640;2023-11-18T10:38:18;6.70;99.90
18884;DHT22;9574;47.282;9.640;2023-11-18T10:40:48;6.70;99.90
18884;DHT22;9574;47.282;9.640;2023-11-18T10:43:17;6.80;99.90
18884;DHT22;9574;47.282;9.640;2023-11-18T10:45:44;6.80;99.90
18884;DHT22;9574;47.282;9.640;2023-11-18T10:48:13;7.00;99.90
18884;DHT22;9574;47.282;9.640;2023-11-18T10:50:44;7.30;99.90
18884;DHT22;9574;47.282;9.640;2023-11-18T10:53:12;7.60;99.90
18884;DHT22;9574;47.282;9.640;2023-11-18T10:55:41;7.80;99.90
18884;DHT22;9574;47.282;9.640;2023-11-18T10:58:08;7.80;99.90
18884;DHT22;9574;47.282;9.640;2023-11-18T11:00:47;7.80;99.90
18884;DHT22;9574;47.282;9.640;2023-11-18T11:03:15;7.40;99.90
18884;DHT22;9574;47.282;9.640;2023-11-18T11:05:44;7.10;99.90
18884;DHT22;9574;47.282;9.640;2023-11-18T11:08:14;7.00;99.90
18884;DHT22;9574;47.282;9.640;2023-11-18T11:10:42;6.90;99.90
18884;DHT22;9574;47.282;9.640;2023-11-18T11:13:10;6.90;99.90
18884;DHT22;9574;47.282;9.640;2023-11-18T11:15:41;7.10;99.90
18884;DHT22;9574;47.282;9.640;2023-11-18T11:18:20;7.00;99.90
18884;DHT22;9574;47.282;9.640;2023-11-18T11:20:59;7.10;99.90
18884;DHT22;9574;47.282;9.640;2023-11-18T11:23:35;7.00;99.90
18884;DHT22;9574;47.282;9.640;2023-11-18T11:26:18;7.00;99.90
18884;DHT22;9574;47.282;9.640;2023-11-18T11:28:52;7.00;99.90
18884;DHT22;9574;47.282;9.640;2023-11-18T11:31:30;7.00;99.90
18884;DHT22;9574;47.282;9.640;2023-11-18T11:34:02;7.10;99.90
18884;DHT22;9574;47.282;9.640;2023-11-18T11:36:37;7.20;99.90
18884;DHT22;9574;47.282;9.640;2023-11-18T11:39:08;7.20;99.90
18884;DHT22;9574;47.282;9.640;2023-11-18T11:41:44;7.10;99.90
18884;DHT22;9574;47.282;9.640;2023-11-18T11:44:13;7.10;99.90
18884;DHT22;9574;47.282;9.640;2023-11-18T11:46:41;7.10;99.90
18884;DHT22;9574;47.282;9.640;2023-11-18T11:49:11;7.10;99.90
18884;DHT22;9574;47.282;9.640;2023-11-18T11:51:48;7.00;99.90
18884;DHT22;9574;47.282;9.640;2023-11-18T11:54:22;7.00;99.90
18884;DHT22;9574;47.282;9.640;2023-11-18T11:56:56;7.00;99.90
18884;DHT22;9574;47.282;9.640;2023-11-18T11:59:55;6.90;99.90
18884;DHT22;9574;47.282;9.640;2023-11-18T12:02:23;6.90;99.90
18884;DHT22;9574;47.282;9.640;2023-11-18T12:04:57;7.00;99.90
18884;DHT22;9574;47.282;9.640;2023-11-18T12:07:25;7.00;99.90
18884;DHT22;9574;47.282;9.640;2023-11-18T12:09:57;7.10;99.90
18884;DHT22;9574;47.282;9.640;2023-11-18T12:12:26;7.20;99.90
18884;DHT22;9574;47.282;9.640;2023-11-18T12:14:54;7.20;99.90
18884;DHT22;9574;47.282;9.640;2023-11-18T12:17:24;7.20;99.90
18884;DHT22;9574;47.282;9.640;2023-11-18T12:19:55;7.20;99.90
18884;DHT22;9574;47.282;9.640;2023-11-18T12:22:25;7.30;99.90
18884;DHT22;9574;47.282;9.640;2023-11-18T12:25:28;7.40;99.90
18884;DHT22;9574;47.282;9.640;2023-11-18T12:27:56;7.50;99.90
18884;DHT22;9574;47.282;9.640;2023-11-18T12:30:42;7.50;99.90
18884;DHT22;9574;47.282;9.640;2023-11-18T12:33:22;7.60;99.90
18884;DHT22;9574;47.282;9.640;2023-11-18T12:42:27;7.50;99.90
18884;DHT22;9574;47.282;9.640;2023-11-18T12:45:22;7.40;99.90
18884;DHT22;9574;47.282;9.640;2023-11-18T12:47:55;7.40;99.90
18884;DHT22;9574;47.282;9.640;2023-11-18T12:50:24;7.40;99.90
18884;DHT22;9574;47.282;9.640;2023-11-18T12:52:54;7.50;99.90
18884;DHT22;9574;47.282;9.640;2023-11-18T12:55:21;7.50;99.90
18884;DHT22;9574;47.282;9.640;2023-11-18T12:57:49;7.50;99.90
18884;DHT22;9574;47.282;9.640;2023-11-18T13:00:17;7.60;99.90
18884;DHT22;9574;47.282;9.640;2023-11-18T13:02:52;7.50;99.90
18884;DHT22;9574;47.282;9.640;2023-11-18T13:05:19;7.50;99.90
18884;DHT22;9574;47.282;9.640;2023-11-18T13:07:46;7.60;99.90
18884;DHT22;9574;47.282;9.640;2023-11-18T13:10:15;7.70;99.90
18884;DHT22;9574;47.282;9.640;2023-11-18T13:12:42;7.70;99.90
18884;DHT22;9574;47.282;9.640;2023-11-18T13:15:12;7.80;99.90
18884;DHT22;9574;47.282;9.640;2023-11-18T13:17:56;7.80;99.90
18884;DHT22;9574;47.282;9.640;2023-11-18T13:20:24;7.80;99.90
18884;DHT22;9574;47.282;9.640;2023-11-18T13:22:51;7.80;99.90
18884;DHT22;9574;47.282;9.640;2023-11-18T13:25:22;7.70;99.90
18884;DHT22;9574;47.282;9.640;2023-11-18T13:27:49;7.70;99.90
18884;DHT22;9574;47.282;9.640;2023-11-18T13:30:17;7.60;99.90
18884;DHT22;9574;47.282;9.640;2023-11-18T13:32:46;7.60;99.90
18884;DHT22;9574;47.282;9.640;2023-11-18T13:35:16;7.60;99.90
18884;DHT22;9574;47.282;9.640;2023-11-18T13:37:47;7.50;99.90
18884;DHT22;9574;47.282;9.640;2023-11-18T13:40:15;7.50;99.90
18884;DHT22;9574;47.282;9.640;2023-11-18T13:42:44;7.40;99.90
18884;DHT22;9574;47.282;9.640;2023-11-18T13:45:13;7.30;99.90
18884;DHT22;9574;47.282;9.640;2023-11-18T13:47:51;7.20;99.90
18884;DHT22;9574;47.282;9.640;2023-11-18T13:50:19;7.20;99.90
18884;DHT22;9574;47.282;9.640;2023-11-18T13:52:46;7.30;99.90
18884;DHT22;9574;47.282;9.640;2023-11-18T13:55:16;7.30;99.90
18884;DHT22;9574;47.282;9.640;2023-11-18T13:57:52;7.30;99.90
18884;DHT22;9574;47.282;9.640;2023-11-18T14:00:22;7.40;99.90
18884;DHT22;9574;47.282;9.640;2023-11-18T14:02:54;7.40;99.90
18884;DHT22;9574;47.282;9.640;2023-11-18T14:05:22;7.30;99.90
18884;DHT22;9574;47.282;9.640;2023-11-18T14:07:53;7.20;99.90
18884;DHT22;9574;47.282;9.640;2023-11-18T14:10:22;7.20;99.90
18884;DHT22;9574;47.282;9.640;2023-11-18T14:13:01;7.20;99.90
18884;DHT22;9574;47.282;9.640;2023-11-18T14:15:31;7.10;99.90
18884;DHT22;9574;47.282;9.640;2023-11-18T14:18:02;7.10;99.90
18884;DHT22;9574;47.282;9.640;2023-11-18T14:20:29;7.20;99.90
18884;DHT22;9574;47.282;9.640;2023-11-18T14:22:57;7.10;99.90
18884;DHT22;9574;47.282;9.640;2023-11-18T14:25:25;7.10;99.90
18884;DHT22;9574;47.282;9.640;2023-11-18T14:27:53;7.10;99.90
18884;DHT22;9574;47.282;9.640;2023-11-18T14:30:20;7.10;99.90
18884;DHT22;9574;47.282;9.640;2023-11-18T14:32:50;7.10;99.90
18884;DHT22;9574;47.282;9.640;2023-11-18T14:35:18;7.20;99.90
18884;DHT22;9574;47.282;9.640;2023-11-18T14:37:46;7.10;99.90
18884;DHT22;9574;47.282;9.640;2023-11-18T14:40:13;7.10;99.90
18884;DHT22;9574;47.282;9.640;2023-11-18T14:42:46;7.10;99.90
18884;DHT22;9574;47.282;9.640;2023-11-18T14:45:15;7.00;99.90
18884;DHT22;9574;47.282;9.640;2023-11-18T14:47:43;7.00;99.90
18884;DHT22;9574;47.282;9.640;2023-11-18T14:50:11;7.00;99.90
18884;DHT22;9574;47.282;9.640;2023-11-18T14:52:45;7.00;99.90
18884;DHT22;9574;47.282;9.640;2023-11-18T14:55:12;7.00;99.90
18884;DHT22;9574;47.282;9.640;2023-11-18T14:57:40;6.90;99.90
18884;DHT22;9574;47.282;9.640;2023-11-18T15:00:07;7.00;99.90
18884;DHT22;9574;47.282;9.640;2023-11-18T15:02:35;7.10;99.90
18884;DHT22;9574;47.282;9.640;2023-11-18T15:05:02;7.10;99.90
18884;DHT22;9574;47.282;9.640;2023-11-18T15:07:31;7.10;99.90
18884;DHT22;9574;47.282;9.640;2023-11-18T15:09:59;7.10;99.90
18884;DHT22;9574;47.282;9.640;2023-11-18T15:12:26;7.00;99.90
18884;DHT22;9574;47.282;9.640;2023-11-18T15:14:54;6.90;99.90
18884;DHT22;9574;47.282;9.640;2023-11-18T15:17:21;7.00;99.90
18884;DHT22;9574;47.282;9.640;2023-11-18T15:19:48;7.10;99.90
18884;DHT22;9574;47.282;9.640;2023-11-18T15:22:16;7.10;99.90
18884;DHT22;9574;47.282;9.640;2023-11-18T15:24:43;7.10;99.90
18884;DHT22;9574;47.282;9.640;2023-11-18T15:27:11;7.10;99.90
18884;DHT22;9574;47.282;9.640;2023-11-18T15:29:40;7.10;99.90
18884;DHT22;9574;47.282;9.640;2023-11-18T15:32:15;7.20;99.90
18884;DHT22;9574;47.282;9.640;2023-11-18T15:34:44;7.20;99.90
18884;DHT22;9574;47.282;9.640;2023-11-18T15:37:11;7.20;99.90
18884;DHT22;9574;47.282;9.640;2023-11-18T15:39:38;7.10;99.90
18884;DHT22;9574;47.282;9.640;2023-11-18T15:42:06;6.90;99.90
18884;DHT22;9574;47.282;9.640;2023-11-18T15:44:36;6.80;99.90
18884;DHT22;9574;47.282;9.640;2023-11-18T15:47:05;6.70;99.90
18884;DHT22;9574;47.282;9.640;2023-11-18T15:49:32;6.60;99.90
18884;DHT22;9574;47.282;9.640;2023-11-18T15:51:59;6.50;99.90
18884;DHT22;9574;47.282;9.640;2023-11-18T15:54:28;6.50;99.90
18884;DHT22;9574;47.282;9.640;2023-11-18T15:56:55;6.40;99.90
18884;DHT22;9574;47.282;9.640;2023-11-18T15:59:22;6.40;99.90
18884;DHT22;9574;47.282;9.640;2023-11-18T16:01:53;6.50;99.90
18884;DHT22;9574;47.282;9.640;2023-11-18T16:04:20;6.50;99.90
18884;DHT22;9574;47.282;9.640;2023-11-18T16:06:47;6.40;99.90
18884;DHT22;9574;47.282;9.640;2023-11-18T16:09:13;6.50;99.90
18884;DHT22;9574;47.282;9.640;2023-11-18T16:11:40;6.50;99.90
18884;DHT22;9574;47.282;9.640;2023-11-18T16:14:07;6.60;99.90
18884;DHT22;9574;47.282;9.640;2023-11-18T16:16:34;6.60;99.90
18884;DHT22;9574;47.282;9.640;2023-11-18T16:19:04;6.50;99.90
18884;DHT22;9574;47.282;9.640;2023-11-18T16:21:31;6.50;99.90